McCook, Nebraska
Current Conditions -  °F | °C
As of 5:53 AM on Tuesday 21 Oct 2014 (Local Time) from KMCK Reporting Station
Clear Clear  
Wind Chill: 48°   Ceiling: Unl
Heat Index: 48°   Visibility: 10mi
Dew Point: 39°   Wind: 3mph
Humidity: 71%   Direction: 150°SSE
Pressure: 30.06"   Gusts: NA
Location:  40.2°N, 100.62°W
Report Text: KMCK 211053Z AUTO 15003KT 10SM CLR 09/04 A3006 RMK AO2 SLP167 T00890039
Loading
Personal Weather Stations






























Interactive Weather Map
Tropical Storm Tracking
New forecast layout! Learn more

10-Day Weather Forecast

Advertisements
Track Severe Weather on mobile